Laguna Larga, Argentina
Current Conditions -  °F | °C
As of 9:00 AM on Thursday 18 Dec 2014 (Local Time) from SACO Reporting Station
Broken Clouds Broken Clouds  
Wind Chill: 23°   Ceiling: 10000
Heat Index: 23°   Visibility: 6mi
Dew Point: 14°   Wind: 0mph
Humidity: 57%   Direction: NA
Pressure: 30.03"   Gusts: NA
Location:  31.77°S, 63.8°W
Report Text: SACO 181200Z 00000KT 9999 FEW020 BKN10023/14 Q1017
Loading
Personal Weather Stations






























Interactive Weather Map New forecast layout! Learn more

10-Day Weather Forecast

Advertisements
Track Severe Weather on mobile